sensor_id;sensor_type;location;lat;lon;timestamp;P1;durP1;ratioP1;P2;durP2;ratioP2
30062;SDS011;16889;67.864;24.990;2022-09-09T00:03:38;1.30;;;1.20;;
30062;SDS011;16889;67.864;24.990;2022-09-09T00:13:37;1.38;;;1.27;;
30062;SDS011;16889;67.864;24.990;2022-09-09T00:23:38;2.78;;;1.38;;
30062;SDS011;16889;67.864;24.990;2022-09-09T00:28:29;1.63;;;1.40;;
30062;SDS011;16889;67.864;24.990;2022-09-09T00:33:19;1.90;;;1.42;;
30062;SDS011;16889;67.864;24.990;2022-09-09T00:38:15;1.73;;;1.45;;
30062;SDS011;16889;67.864;24.990;2022-09-09T00:43:26;2.47;;;1.50;;
30062;SDS011;16889;67.864;24.990;2022-09-09T00:48:17;1.98;;;1.50;;
30062;SDS011;16889;67.864;24.990;2022-09-09T00:58:16;2.85;;;1.60;;
30062;SDS011;16889;67.864;24.990;2022-09-09T01:07:54;1.92;;;1.30;;
30062;SDS011;16889;67.864;24.990;2022-09-09T01:12:43;3.28;;;1.70;;
30062;SDS011;16889;67.864;24.990;2022-09-09T01:27:16;2.90;;;2.08;;
30062;SDS011;16889;67.864;24.990;2022-09-09T01:42:11;1.92;;;1.83;;
30062;SDS011;16889;67.864;24.990;2022-09-09T01:47:00;1.77;;;1.60;;
30062;SDS011;16889;67.864;24.990;2022-09-09T01:51:46;4.28;;;1.80;;
30062;SDS011;16889;67.864;24.990;2022-09-09T02:02:01;4.45;;;2.15;;
30062;SDS011;16889;67.864;24.990;2022-09-09T02:06:55;2.78;;;1.85;;
30062;SDS011;16889;67.864;24.990;2022-09-09T02:11:42;2.35;;;1.95;;
30062;SDS011;16889;67.864;24.990;2022-09-09T02:16:37;3.38;;;1.80;;
30062;SDS011;16889;67.864;24.990;2022-09-09T02:21:28;4.30;;;1.60;;
30062;SDS011;16889;67.864;24.990;2022-09-09T02:26:16;3.30;;;1.98;;
30062;SDS011;16889;67.864;24.990;2022-09-09T02:31:06;1.60;;;1.48;;
30062;SDS011;16889;67.864;24.990;2022-09-09T02:35:52;2.20;;;1.75;;
30062;SDS011;16889;67.864;24.990;2022-09-09T02:40:41;2.88;;;1.80;;
30062;SDS011;16889;67.864;24.990;2022-09-09T02:45:30;2.15;;;1.73;;
30062;SDS011;16889;67.864;24.990;2022-09-09T02:50:23;1.90;;;1.60;;
30062;SDS011;16889;67.864;24.990;2022-09-09T03:00:25;7.95;;;1.55;;
30062;SDS011;16889;67.864;24.990;2022-09-09T03:05:12;2.88;;;1.90;;
30062;SDS011;16889;67.864;24.990;2022-09-09T03:09:58;2.58;;;1.75;;
30062;SDS011;16889;67.864;24.990;2022-09-09T03:14:44;1.55;;;1.40;;
30062;SDS011;16889;67.864;24.990;2022-09-09T03:19:31;2.63;;;1.70;;
30062;SDS011;16889;67.864;24.990;2022-09-09T03:24:21;1.52;;;1.27;;
30062;SDS011;16889;67.864;24.990;2022-09-09T03:29:07;2.38;;;1.27;;
30062;SDS011;16889;67.864;24.990;2022-09-09T03:33:53;3.92;;;1.70;;
30062;SDS011;16889;67.864;24.990;2022-09-09T03:38:39;2.03;;;1.60;;
30062;SDS011;16889;67.864;24.990;2022-09-09T03:43:26;2.67;;;1.75;;
30062;SDS011;16889;67.864;24.990;2022-09-09T03:48:13;1.42;;;1.30;;
30062;SDS011;16889;67.864;24.990;2022-09-09T03:53:01;2.67;;;1.60;;
30062;SDS011;16889;67.864;24.990;2022-09-09T03:57:49;1.70;;;1.60;;
30062;SDS011;16889;67.864;24.990;2022-09-09T04:02:35;3.15;;;1.77;;
30062;SDS011;16889;67.864;24.990;2022-09-09T04:07:21;2.90;;;2.10;;
30062;SDS011;16889;67.864;24.990;2022-09-09T04:12:07;3.63;;;2.72;;
30062;SDS011;16889;67.864;24.990;2022-09-09T04:16:54;3.78;;;2.78;;
30062;SDS011;16889;67.864;24.990;2022-09-09T04:21:41;4.07;;;2.60;;
30062;SDS011;16889;67.864;24.990;2022-09-09T04:26:27;3.50;;;2.85;;
30062;SDS011;16889;67.864;24.990;2022-09-09T04:31:17;4.38;;;2.35;;
30062;SDS011;16889;67.864;24.990;2022-09-09T04:36:05;2.65;;;2.15;;
30062;SDS011;16889;67.864;24.990;2022-09-09T04:40:52;4.93;;;2.25;;
30062;SDS011;16889;67.864;24.990;2022-09-09T04:45:39;2.25;;;1.95;;
30062;SDS011;16889;67.864;24.990;2022-09-09T04:50:25;2.40;;;2.20;;
30062;SDS011;16889;67.864;24.990;2022-09-09T04:55:14;1.88;;;1.67;;
30062;SDS011;16889;67.864;24.990;2022-09-09T05:00:00;1.92;;;1.67;;
30062;SDS011;16889;67.864;24.990;2022-09-09T05:04:48;2.55;;;1.98;;
30062;SDS011;16889;67.864;24.990;2022-09-09T05:09:34;1.70;;;1.58;;
30062;SDS011;16889;67.864;24.990;2022-09-09T05:14:21;2.00;;;1.70;;
30062;SDS011;16889;67.864;24.990;2022-09-09T05:19:07;1.83;;;1.63;;
30062;SDS011;16889;67.864;24.990;2022-09-09T05:23:54;2.47;;;1.67;;
30062;SDS011;16889;67.864;24.990;2022-09-09T05:28:40;1.95;;;1.60;;
30062;SDS011;16889;67.864;24.990;2022-09-09T05:33:26;1.90;;;1.70;;
30062;SDS011;16889;67.864;24.990;2022-09-09T05:38:12;3.28;;;1.50;;
30062;SDS011;16889;67.864;24.990;2022-09-09T05:42:59;1.13;;;0.75;;
30062;SDS011;16889;67.864;24.990;2022-09-09T05:47:50;1.00;;;0.70;;
30062;SDS011;16889;67.864;24.990;2022-09-09T05:52:40;3.60;;;0.70;;
30062;SDS011;16889;67.864;24.990;2022-09-09T05:57:26;1.08;;;0.60;;
30062;SDS011;16889;67.864;24.990;2022-09-09T06:02:12;0.80;;;0.63;;
30062;SDS011;16889;67.864;24.990;2022-09-09T06:06:58;0.95;;;0.85;;
30062;SDS011;16889;67.864;24.990;2022-09-09T06:11:44;1.77;;;0.82;;
30062;SDS011;16889;67.864;24.990;2022-09-09T06:16:31;0.90;;;0.60;;
30062;SDS011;16889;67.864;24.990;2022-09-09T06:21:23;0.73;;;0.70;;
30062;SDS011;16889;67.864;24.990;2022-09-09T06:26:16;0.77;;;0.70;;
30062;SDS011;16889;67.864;24.990;2022-09-09T06:31:04;0.98;;;0.77;;
30062;SDS011;16889;67.864;24.990;2022-09-09T06:35:58;1.60;;;0.88;;
30062;SDS011;16889;67.864;24.990;2022-09-09T06:40:51;0.90;;;0.70;;
30062;SDS011;16889;67.864;24.990;2022-09-09T06:45:39;0.85;;;0.70;;
30062;SDS011;16889;67.864;24.990;2022-09-09T06:50:25;5.28;;;0.80;;
30062;SDS011;16889;67.864;24.990;2022-09-09T06:55:11;0.45;;;0.45;;
30062;SDS011;16889;67.864;24.990;2022-09-09T06:59:58;0.73;;;0.50;;
30062;SDS011;16889;67.864;24.990;2022-09-09T07:04:44;0.95;;;0.32;;
30062;SDS011;16889;67.864;24.990;2022-09-09T07:09:30;0.57;;;0.50;;
30062;SDS011;16889;67.864;24.990;2022-09-09T07:14:16;0.60;;;0.50;;
30062;SDS011;16889;67.864;24.990;2022-09-09T07:19:03;0.52;;;0.40;;
30062;SDS011;16889;67.864;24.990;2022-09-09T07:23:49;0.63;;;0.43;;
30062;SDS011;16889;67.864;24.990;2022-09-09T07:28:36;0.40;;;0.40;;
30062;SDS011;16889;67.864;24.990;2022-09-09T07:33:23;0.73;;;0.50;;
30062;SDS011;16889;67.864;24.990;2022-09-09T07:38:10;0.73;;;0.40;;
30062;SDS011;16889;67.864;24.990;2022-09-09T07:42:56;0.40;;;0.30;;
30062;SDS011;16889;67.864;24.990;2022-09-09T07:47:42;1.80;;;0.50;;
30062;SDS011;16889;67.864;24.990;2022-09-09T07:52:28;1.13;;;0.50;;
30062;SDS011;16889;67.864;24.990;2022-09-09T07:57:14;2.58;;;0.60;;
30062;SDS011;16889;67.864;24.990;2022-09-09T08:02:01;0.88;;;0.47;;
30062;SDS011;16889;67.864;24.990;2022-09-09T08:06:49;0.50;;;0.50;;
30062;SDS011;16889;67.864;24.990;2022-09-09T08:11:38;0.63;;;0.40;;
30062;SDS011;16889;67.864;24.990;2022-09-09T08:16:26;1.50;;;0.50;;
30062;SDS011;16889;67.864;24.990;2022-09-09T08:21:16;1.00;;;0.50;;
30062;SDS011;16889;67.864;24.990;2022-09-09T08:26:08;2.95;;;0.60;;
30062;SDS011;16889;67.864;24.990;2022-09-09T08:31:04;0.65;;;0.40;;
30062;SDS011;16889;67.864;24.990;2022-09-09T08:36:18;0.73;;;0.60;;
30062;SDS011;16889;67.864;24.990;2022-09-09T08:46:46;3.17;;;0.63;;
30062;SDS011;16889;67.864;24.990;2022-09-09T08:51:36;2.55;;;0.50;;
30062;SDS011;16889;67.864;24.990;2022-09-09T08:56:23;0.98;;;0.57;;
30062;SDS011;16889;67.864;24.990;2022-09-09T09:01:24;1.25;;;0.40;;
30062;SDS011;16889;67.864;24.990;2022-09-09T09:11:21;0.77;;;0.47;;
30062;SDS011;16889;67.864;24.990;2022-09-09T09:16:23;0.30;;;0.30;;
30062;SDS011;16889;67.864;24.990;2022-09-09T09:21:21;1.73;;;0.63;;
30062;SDS011;16889;67.864;24.990;2022-09-09T09:26:35;0.35;;;0.30;;
30062;SDS011;16889;67.864;24.990;2022-09-09T09:31:22;0.30;;;0.30;;
30062;SDS011;16889;67.864;24.990;2022-09-09T09:36:10;0.85;;;0.40;;
30062;SDS011;16889;67.864;24.990;2022-09-09T09:40:58;0.52;;;0.50;;
30062;SDS011;16889;67.864;24.990;2022-09-09T09:45:45;0.65;;;0.40;;
30062;SDS011;16889;67.864;24.990;2022-09-09T09:50:32;0.68;;;0.32;;
30062;SDS011;16889;67.864;24.990;2022-09-09T09:55:18;1.07;;;0.50;;
30062;SDS011;16889;67.864;24.990;2022-09-09T10:00:15;2.35;;;0.50;;
30062;SDS011;16889;67.864;24.990;2022-09-09T10:05:08;1.15;;;0.40;;
30062;SDS011;16889;67.864;24.990;2022-09-09T10:09:57;0.68;;;0.30;;
30062;SDS011;16889;67.864;24.990;2022-09-09T10:26:02;1.60;;;0.50;;
30062;SDS011;16889;67.864;24.990;2022-09-09T10:31:17;0.70;;;0.38;;
30062;SDS011;16889;67.864;24.990;2022-09-09T10:36:09;0.47;;;0.30;;
30062;SDS011;16889;67.864;24.990;2022-09-09T10:41:08;0.60;;;0.40;;
30062;SDS011;16889;67.864;24.990;2022-09-09T10:51:33;0.77;;;0.30;;
30062;SDS011;16889;67.864;24.990;2022-09-09T10:56:28;1.55;;;0.40;;
30062;SDS011;16889;67.864;24.990;2022-09-09T11:01:18;1.07;;;0.40;;
30062;SDS011;16889;67.864;24.990;2022-09-09T11:06:15;2.33;;;0.35;;
30062;SDS011;16889;67.864;24.990;2022-09-09T11:16:19;2.05;;;0.40;;
30062;SDS011;16889;67.864;24.990;2022-09-09T11:21:08;1.25;;;0.50;;
30062;SDS011;16889;67.864;24.990;2022-09-09T11:26:29;2.60;;;0.50;;
30062;SDS011;16889;67.864;24.990;2022-09-09T11:41:43;0.90;;;0.50;;
30062;SDS011;16889;67.864;24.990;2022-09-09T11:46:34;3.08;;;0.50;;
30062;SDS011;16889;67.864;24.990;2022-09-09T11:51:30;0.50;;;0.32;;
30062;SDS011;16889;67.864;24.990;2022-09-09T12:01:33;0.57;;;0.40;;
30062;SDS011;16889;67.864;24.990;2022-09-09T12:11:27;0.43;;;0.30;;
30062;SDS011;16889;67.864;24.990;2022-09-09T12:16:32;0.40;;;0.40;;
30062;SDS011;16889;67.864;24.990;2022-09-09T12:26:52;0.60;;;0.40;;
30062;SDS011;16889;67.864;24.990;2022-09-09T12:36:31;0.30;;;0.30;;
30062;SDS011;16889;67.864;24.990;2022-09-09T12:41:28;0.82;;;0.50;;
30062;SDS011;16889;67.864;24.990;2022-09-09T12:46:25;0.63;;;0.40;;
30062;SDS011;16889;67.864;24.990;2022-09-09T12:51:32;0.77;;;0.30;;
30062;SDS011;16889;67.864;24.990;2022-09-09T12:56:24;1.02;;;0.32;;
30062;SDS011;16889;67.864;24.990;2022-09-09T13:01:21;0.75;;;0.30;;
30062;SDS011;16889;67.864;24.990;2022-09-09T13:06:11;0.70;;;0.38;;
30062;SDS011;16889;67.864;24.990;2022-09-09T13:11:00;0.95;;;0.50;;
30062;SDS011;16889;67.864;24.990;2022-09-09T13:15:56;1.95;;;0.30;;
30062;SDS011;16889;67.864;24.990;2022-09-09T13:20:47;0.77;;;0.32;;
30062;SDS011;16889;67.864;24.990;2022-09-09T13:25:34;0.30;;;0.30;;
30062;SDS011;16889;67.864;24.990;2022-09-09T13:30:21;3.45;;;0.35;;
30062;SDS011;16889;67.864;24.990;2022-09-09T13:35:22;0.85;;;0.50;;
30062;SDS011;16889;67.864;24.990;2022-09-09T13:40:17;0.45;;;0.40;;
30062;SDS011;16889;67.864;24.990;2022-09-09T13:45:04;1.85;;;0.40;;
30062;SDS011;16889;67.864;24.990;2022-09-09T13:49:51;0.80;;;0.30;;
30062;SDS011;16889;67.864;24.990;2022-09-09T13:54:37;0.30;;;0.30;;
30062;SDS011;16889;67.864;24.990;2022-09-09T13:59:23;0.50;;;0.40;;
30062;SDS011;16889;67.864;24.990;2022-09-09T14:04:11;0.68;;;0.47;;
30062;SDS011;16889;67.864;24.990;2022-09-09T14:08:57;4.32;;;0.55;;
30062;SDS011;16889;67.864;24.990;2022-09-09T14:13:43;2.10;;;0.40;;
30062;SDS011;16889;67.864;24.990;2022-09-09T14:18:30;0.93;;;0.40;;
30062;SDS011;16889;67.864;24.990;2022-09-09T14:23:16;1.17;;;0.50;;
30062;SDS011;16889;67.864;24.990;2022-09-09T14:28:02;0.93;;;0.50;;
30062;SDS011;16889;67.864;24.990;2022-09-09T14:32:48;0.68;;;0.40;;
30062;SDS011;16889;67.864;24.990;2022-09-09T14:37:34;1.77;;;0.43;;
30062;SDS011;16889;67.864;24.990;2022-09-09T14:42:20;1.08;;;0.40;;
30062;SDS011;16889;67.864;24.990;2022-09-09T14:47:07;0.63;;;0.50;;
30062;SDS011;16889;67.864;24.990;2022-09-09T14:51:53;1.05;;;0.40;;
30062;SDS011;16889;67.864;24.990;2022-09-09T14:56:39;0.68;;;0.40;;
30062;SDS011;16889;67.864;24.990;2022-09-09T15:01:25;0.93;;;0.50;;
30062;SDS011;16889;67.864;24.990;2022-09-09T15:06:13;0.60;;;0.40;;
30062;SDS011;16889;67.864;24.990;2022-09-09T15:11:00;0.47;;;0.40;;
30062;SDS011;16889;67.864;24.990;2022-09-09T15:15:47;0.50;;;0.50;;
30062;SDS011;16889;67.864;24.990;2022-09-09T15:20:35;0.90;;;0.40;;
30062;SDS011;16889;67.864;24.990;2022-09-09T15:25:22;2.00;;;0.50;;
30062;SDS011;16889;67.864;24.990;2022-09-09T15:30:08;3.00;;;0.45;;
30062;SDS011;16889;67.864;24.990;2022-09-09T15:34:55;2.50;;;0.50;;
30062;SDS011;16889;67.864;24.990;2022-09-09T15:39:41;0.45;;;0.40;;
30062;SDS011;16889;67.864;24.990;2022-09-09T15:44:27;1.90;;;0.55;;
30062;SDS011;16889;67.864;24.990;2022-09-09T15:49:14;1.48;;;0.57;;
30062;SDS011;16889;67.864;24.990;2022-09-09T15:54:03;0.52;;;0.40;;
30062;SDS011;16889;67.864;24.990;2022-09-09T15:58:50;0.45;;;0.45;;
30062;SDS011;16889;67.864;24.990;2022-09-09T16:03:37;0.63;;;0.57;;
30062;SDS011;16889;67.864;24.990;2022-09-09T16:08:36;1.25;;;0.52;;
30062;SDS011;16889;67.864;24.990;2022-09-09T16:13:24;1.83;;;0.50;;
30062;SDS011;16889;67.864;24.990;2022-09-09T16:18:10;1.98;;;0.60;;
30062;SDS011;16889;67.864;24.990;2022-09-09T16:22:55;0.80;;;0.50;;
30062;SDS011;16889;67.864;24.990;2022-09-09T16:27:42;1.48;;;0.47;;
30062;SDS011;16889;67.864;24.990;2022-09-09T16:32:28;2.33;;;0.50;;
30062;SDS011;16889;67.864;24.990;2022-09-09T16:37:14;1.40;;;0.50;;
30062;SDS011;16889;67.864;24.990;2022-09-09T16:42:00;0.60;;;0.30;;
30062;SDS011;16889;67.864;24.990;2022-09-09T16:46:48;2.67;;;0.70;;
30062;SDS011;16889;67.864;24.990;2022-09-09T16:51:37;1.88;;;0.45;;
30062;SDS011;16889;67.864;24.990;2022-09-09T16:56:30;0.52;;;0.50;;
30062;SDS011;16889;67.864;24.990;2022-09-09T17:01:22;0.82;;;0.55;;
30062;SDS011;16889;67.864;24.990;2022-09-09T17:06:12;3.45;;;0.60;;
30062;SDS011;16889;67.864;24.990;2022-09-09T17:11:00;1.17;;;0.52;;
30062;SDS011;16889;67.864;24.990;2022-09-09T17:15:46;0.60;;;0.60;;
30062;SDS011;16889;67.864;24.990;2022-09-09T17:20:34;0.70;;;0.60;;
30062;SDS011;16889;67.864;24.990;2022-09-09T17:25:21;1.48;;;0.88;;
30062;SDS011;16889;67.864;24.990;2022-09-09T17:30:08;0.85;;;0.70;;
30062;SDS011;16889;67.864;24.990;2022-09-09T17:34:54;1.58;;;0.75;;
30062;SDS011;16889;67.864;24.990;2022-09-09T17:39:40;3.25;;;0.70;;
30062;SDS011;16889;67.864;24.990;2022-09-09T17:44:26;3.53;;;0.63;;
30062;SDS011;16889;67.864;24.990;2022-09-09T17:49:14;1.75;;;0.52;;
30062;SDS011;16889;67.864;24.990;2022-09-09T17:54:03;1.08;;;0.75;;
30062;SDS011;16889;67.864;24.990;2022-09-09T17:58:55;0.90;;;0.65;;
30062;SDS011;16889;67.864;24.990;2022-09-09T18:03:42;0.77;;;0.77;;
30062;SDS011;16889;67.864;24.990;2022-09-09T18:08:29;1.67;;;0.70;;
30062;SDS011;16889;67.864;24.990;2022-09-09T18:13:16;1.45;;;0.63;;
30062;SDS011;16889;67.864;24.990;2022-09-09T18:18:02;1.05;;;0.77;;
30062;SDS011;16889;67.864;24.990;2022-09-09T18:22:51;1.13;;;0.80;;
30062;SDS011;16889;67.864;24.990;2022-09-09T18:27:37;1.15;;;0.70;;
30062;SDS011;16889;67.864;24.990;2022-09-09T18:32:23;0.70;;;0.60;;
30062;SDS011;16889;67.864;24.990;2022-09-09T18:37:09;0.90;;;0.77;;
30062;SDS011;16889;67.864;24.990;2022-09-09T18:41:58;2.55;;;0.65;;
30062;SDS011;16889;67.864;24.990;2022-09-09T18:46:45;3.10;;;0.68;;
30062;SDS011;16889;67.864;24.990;2022-09-09T18:51:33;1.60;;;0.73;;
30062;SDS011;16889;67.864;24.990;2022-09-09T18:56:21;1.33;;;0.75;;
30062;SDS011;16889;67.864;24.990;2022-09-09T19:01:09;1.05;;;0.80;;
30062;SDS011;16889;67.864;24.990;2022-09-09T19:06:00;1.27;;;1.00;;
30062;SDS011;16889;67.864;24.990;2022-09-09T19:10:54;1.20;;;1.00;;
30062;SDS011;16889;67.864;24.990;2022-09-09T19:15:40;2.05;;;1.00;;
30062;SDS011;16889;67.864;24.990;2022-09-09T19:20:26;1.25;;;0.90;;
30062;SDS011;16889;67.864;24.990;2022-09-09T19:25:12;1.35;;;0.85;;
30062;SDS011;16889;67.864;24.990;2022-09-09T19:29:58;1.38;;;0.90;;
30062;SDS011;16889;67.864;24.990;2022-09-09T19:34:44;1.50;;;1.08;;
30062;SDS011;16889;67.864;24.990;2022-09-09T19:39:30;1.67;;;0.93;;
30062;SDS011;16889;67.864;24.990;2022-09-09T19:44:18;0.95;;;0.90;;
30062;SDS011;16889;67.864;24.990;2022-09-09T19:49:04;1.17;;;0.95;;
30062;SDS011;16889;67.864;24.990;2022-09-09T19:53:52;3.08;;;0.90;;
30062;SDS011;16889;67.864;24.990;2022-09-09T19:58:42;1.10;;;0.90;;
30062;SDS011;16889;67.864;24.990;2022-09-09T20:03:31;2.75;;;1.00;;
30062;SDS011;16889;67.864;24.990;2022-09-09T20:08:19;1.83;;;1.25;;
30062;SDS011;16889;67.864;24.990;2022-09-09T20:13:05;1.10;;;0.98;;
30062;SDS011;16889;67.864;24.990;2022-09-09T20:17:51;1.67;;;1.05;;
30062;SDS011;16889;67.864;24.990;2022-09-09T20:22:37;2.40;;;1.05;;
30062;SDS011;16889;67.864;24.990;2022-09-09T20:27:23;1.95;;;1.00;;
30062;SDS011;16889;67.864;24.990;2022-09-09T20:32:09;5.32;;;1.00;;
30062;SDS011;16889;67.864;24.990;2022-09-09T20:36:55;1.77;;;1.15;;
30062;SDS011;16889;67.864;24.990;2022-09-09T20:41:43;1.13;;;0.80;;
30062;SDS011;16889;67.864;24.990;2022-09-09T20:46:31;4.05;;;1.02;;
30062;SDS011;16889;67.864;24.990;2022-09-09T20:51:20;3.78;;;1.00;;
30062;SDS011;16889;67.864;24.990;2022-09-09T20:56:08;2.67;;;1.10;;
30062;SDS011;16889;67.864;24.990;2022-09-09T21:00:55;2.58;;;0.77;;
30062;SDS011;16889;67.864;24.990;2022-09-09T21:05:44;3.03;;;0.90;;
30062;SDS011;16889;67.864;24.990;2022-09-09T21:10:31;1.40;;;1.08;;
30062;SDS011;16889;67.864;24.990;2022-09-09T21:15:17;3.50;;;1.35;;
30062;SDS011;16889;67.864;24.990;2022-09-09T21:20:03;1.88;;;0.98;;
30062;SDS011;16889;67.864;24.990;2022-09-09T21:24:50;3.28;;;1.10;;
30062;SDS011;16889;67.864;24.990;2022-09-09T21:29:37;2.85;;;1.30;;
30062;SDS011;16889;67.864;24.990;2022-09-09T21:34:23;2.10;;;1.33;;
30062;SDS011;16889;67.864;24.990;2022-09-09T21:39:09;1.67;;;1.10;;
30062;SDS011;16889;67.864;24.990;2022-09-09T21:43:55;3.42;;;1.42;;
30062;SDS011;16889;67.864;24.990;2022-09-09T21:48:41;1.40;;;1.20;;
30062;SDS011;16889;67.864;24.990;2022-09-09T21:53:27;1.52;;;1.15;;
30062;SDS011;16889;67.864;24.990;2022-09-09T21:58:13;2.00;;;1.25;;
30062;SDS011;16889;67.864;24.990;2022-09-09T22:03:01;1.30;;;1.17;;
30062;SDS011;16889;67.864;24.990;2022-09-09T22:07:47;1.40;;;1.15;;
30062;SDS011;16889;67.864;24.990;2022-09-09T22:12:33;1.70;;;1.30;;
30062;SDS011;16889;67.864;24.990;2022-09-09T22:17:20;1.55;;;1.10;;
30062;SDS011;16889;67.864;24.990;2022-09-09T22:26:54;1.80;;;1.20;;
30062;SDS011;16889;67.864;24.990;2022-09-09T22:31:40;3.33;;;1.35;;
30062;SDS011;16889;67.864;24.990;2022-09-09T22:36:27;1.63;;;1.33;;
30062;SDS011;16889;67.864;24.990;2022-09-09T22:41:13;2.15;;;1.23;;
30062;SDS011;16889;67.864;24.990;2022-09-09T22:45:59;2.65;;;1.30;;
30062;SDS011;16889;67.864;24.990;2022-09-09T22:50:46;1.57;;;1.03;;
30062;SDS011;16889;67.864;24.990;2022-09-09T22:55:32;1.40;;;1.10;;
30062;SDS011;16889;67.864;24.990;2022-09-09T23:00:18;1.95;;;1.10;;
30062;SDS011;16889;67.864;24.990;2022-09-09T23:05:05;1.42;;;1.08;;
30062;SDS011;16889;67.864;24.990;2022-09-09T23:09:54;1.80;;;1.30;;
30062;SDS011;16889;67.864;24.990;2022-09-09T23:14:39;1.85;;;1.30;;
30062;SDS011;16889;67.864;24.990;2022-09-09T23:19:25;1.42;;;1.20;;
30062;SDS011;16889;67.864;24.990;2022-09-09T23:24:14;3.28;;;1.35;;
30062;SDS011;16889;67.864;24.990;2022-09-09T23:29:00;3.15;;;1.50;;
30062;SDS011;16889;67.864;24.990;2022-09-09T23:33:47;1.52;;;1.10;;
30062;SDS011;16889;67.864;24.990;2022-09-09T23:38:34;3.53;;;1.38;;
30062;SDS011;16889;67.864;24.990;2022-09-09T23:43:22;1.23;;;1.13;;
30062;SDS011;16889;67.864;24.990;2022-09-09T23:48:09;1.70;;;1.30;;
30062;SDS011;16889;67.864;24.990;2022-09-09T23:52:55;4.47;;;1.65;;
30062;SDS011;16889;67.864;24.990;2022-09-09T23:57:41;2.05;;;1.10;;
